Beltrami, Minnesota
Current Conditions -  °F | °C
As of 5:35 AM on Friday 31 Oct 2014 (Local Time) from KCKN Reporting Station
Clear Clear  
Wind Chill:   Ceiling: Unl
Heat Index: 12°   Visibility: 10mi
Dew Point: 10°   Wind: 5mph
Humidity: 92%   Direction: 300°WNW
Pressure: 30.61"   Gusts: NA
Location:  47.54°N, 96.53°W
Report Text: KCKN 311035Z AUTO 30004KT 10SM CLR M11/M12 A3061 RMK AO2
Loading
Personal Weather Stations






























Interactive Weather Map
Tropical Storm Tracking
New forecast layout! Learn more

10-Day Weather Forecast

Advertisements
Track Severe Weather on mobile